Relevés horaires Matro (Suisse)


Relevés horaires à Matro - Dimanche 21 Déc. 2014
Heure UTC1 Température [°C] Vent [km/h] Hum. [%] Pres.4 [hPa] Visi. [Km] Nébu. [octa] Préc.5 [mm] Cond.
2m. Res. Ros. Dir.2 Vit. Moy. Raf.3
23:00 2.9 -1.6 -17.2 ONO 20.4 24.1 29.6 21 850(0.3/3h) -- -- -- --
22:00 2.7 -2.3 -16.9 O 24.1 24.1 29.6 22 850(0.3/3h) -- -- -- --
21:00 2.6 -2.7 -16.8 O 25.9 25.9 33.3 22 850(0.7/3h) -- -- -- --
20:00 2.1 -3.3 -17.1 O 25.9 25.9 33.3 22 850(1.1/3h) -- -- -- --
19:00 2.0 -3 -17.2 ONO 22.2 25.9 33.3 22 850(1.1/3h) -- -- -- --
18:00 1.5 -3.9 -17.7 NO 24.1 27.8 37.0 22 850(0.7/3h) -- -- -- --
17:00 0.6 -4.8 -17.4 NO 22.2 24.1 33.3 24 850(0.1/3h) -- -- -- --
16:00 0.4 -5.7 -17.6 NO 27.8 27.8 37.0 24 850(-0.2/3h) -- -- -- --
15:00 0.0 -5.3 -17.3 NO 20.4 24.1 33.3 26 850(0.1/3h) -- -- -- --
14:00 0.4 -5.3 -17.0 NO 24.1 24.1 33.3 26 850(0.1/3h) -- -- -- --
13:00 0.5 -4.7 -17.0 NO 20.4 24.1 33.3 25 850(0.2/3h) -- -- -- --
12:00 0.4 -5.3 -18.4 NO 24.1 53.7 77.8 23 850(1.0/3h) -- -- -- --
11:00 -0.7 -6.4 -16.8 NO 22.2 29.6 42.6 28 850(2.0/3h) -- -- -- --
10:00 -1.0 -7.5 -19.7 NO 27.8 35.2 46.3 23 850(2.2/3h) -- -- -- --
09:00 -1.5 -8.2 -20.4 ONO 27.8 53.7 77.8 22 850(2.0/3h) -- -- -- --
08:00 -2.1 -9.6 -20.9 NO 33.3 50.0 74.1 22 850(1.3/3h) -- -- -- --
07:00 -2.5 -11.5 -21.7 NNO 50.0 53.7 77.8 21 850(1.3/3h) -- -- -- --
06:00 -3.1 -12.4 -19.3 NNO 50.0 66.7 88.9 27 850(1.0/3h) -- -- -- --
05:00 -3.7 -13.7 -15.8 NNO 57.4 64.8 81.5 38 850(0.4/3h) -- -- -- --
04:00 -4.2 -14.8 -13.2 NO 63.0 66.7 88.9 49 850(0.3/3h) -- -- -- --
03:00 -4.8 -15.6 -11.8 NNO 63.0 64.8 83.3 58 850(-0.1/3h) -- -- -- --
02:00 -4.9 -15.2 -10.9 NNO 55.6 59.3 79.6 63 850(0.3/3h) -- -- -- --
01:00 -4.5 -15.3 -11.0 NNO 64.8 64.8 83.3 60 850(-0.2/3h) -- -- -- --
00:00 -3.9 -13.6 -11.4 NNO 51.9 55.6 72.2 56 850(0.4/3h) -- -- -- --

1 Coordinated Universal Time. Actuellement il est 22:00 locale et 20:00 UTC.

2 Le vent souffle depuis la direction indiquée vers la direction oposée.

3 Les rafales max. sont disponible 40 min après l'heure du relevé.

4 Pour les stations d'altitude (plus de 600m) le géopotentiel du niveau le plus proche de la pression obligatoire est indiqué.

5 Les stations disposant d'un diffuseur peuvent indiquer "trace". Cela signifie que des précipitations ont touchés le sol mais que la quantité est inférieure à 0.1 mm.

Copyright

Les données affichées sur cette page sont la propriété exclusive de Météo Suisse.

Récapitulatif de la journée
Température [°C] Vent [km/h] Ensoleillement4 [h] Precipitations totale5 [mm] Pression [Hpa]
Min1 Max.2 Moy.3 Max. Min Max.
-4.9 1.5 41.5 88.9 6 h 42 min 0 850.0 850.0

1 Température minimale relevée entre 18:00 UTC la veille et 18:00 UTC le jour donné.

2 Température maximale relevée entre 06:00 UTC le jour donné et 06:00 UTC le lendemain.

3 Vent moyen de la journée basé sur les relevés horaires.

4 Ensoleillement en heures relevé entre 06:00 UTC la veille et 06:00 UTC le jour donné.

5 Précipitations totales tombées entre 06:00 UTC la jour donné et 06:00 UTC le lendemain.

Graphiques horaires